createdAt,value
2024-02-27T00:13:01.941Z,3.59
2024-02-27T00:28:26.952Z,3.59
2024-02-27T00:43:51.864Z,2.75
2024-02-27T00:59:16.865Z,2.75
2024-02-27T01:14:41.941Z,2.75
2024-02-27T01:30:06.928Z,2.75
2024-02-27T01:45:31.940Z,3.30
2024-02-27T02:00:56.895Z,2.45
2024-02-27T02:16:21.872Z,2.45
2024-02-27T02:31:47.092Z,2.98
2024-02-27T02:47:11.830Z,2.64
2024-02-27T03:02:36.820Z,2.64
2024-02-27T03:18:01.971Z,2.27
2024-02-27T03:33:26.971Z,2.27
2024-02-27T03:48:52.012Z,2.27
2024-02-27T04:04:16.741Z,2.27
2024-02-27T04:19:41.908Z,2.75
2024-02-27T04:35:06.794Z,2.75
2024-02-27T04:50:31.746Z,2.75
2024-02-27T05:05:56.847Z,2.75
2024-02-27T05:21:21.734Z,2.27
2024-02-27T05:36:46.788Z,2.75
2024-02-27T05:52:12.728Z,2.75
2024-02-27T06:07:37.710Z,2.75
2024-02-27T06:23:02.792Z,2.75
2024-02-27T06:38:27.775Z,1.88
2024-02-27T06:53:52.621Z,1.88
2024-02-27T07:09:17.687Z,1.88
2024-02-27T07:24:42.786Z,1.88
2024-02-27T07:40:07.638Z,1.88
2024-02-27T07:55:32.682Z,2.34
2024-02-27T08:10:57.674Z,3.66
2024-02-27T08:26:23.643Z,3.21
2024-02-27T08:41:48.628Z,3.62
2024-02-27T08:57:13.976Z,3.13
2024-02-27T09:12:38.647Z,4.00
2024-02-27T09:28:03.461Z,4.00
2024-02-27T09:43:28.602Z,4.00
2024-02-27T09:58:53.632Z,4.36
2024-02-27T10:14:18.494Z,4.36
2024-02-27T10:29:45.309Z,4.36
2024-02-27T10:45:08.448Z,4.36
2024-02-27T11:00:33.570Z,4.36
2024-02-27T11:15:58.492Z,4.36
2024-02-27T11:31:23.395Z,3.84
2024-02-27T11:46:48.485Z,4.36
2024-02-27T12:02:13.507Z,3.84
2024-02-27T12:17:38.733Z,3.84
2024-02-27T12:33:03.493Z,3.84
2024-02-27T12:48:28.540Z,3.84
2024-02-27T13:03:53.653Z,3.84
2024-02-27T13:19:18.514Z,4.69
2024-02-27T13:34:46.116Z,4.69
2024-02-27T13:50:08.495Z,4.15
2024-02-27T14:05:33.518Z,4.15
2024-02-27T14:20:58.643Z,4.69
2024-02-27T14:36:23.397Z,4.69
2024-02-27T14:51:48.548Z,4.69
2024-02-27T15:07:13.423Z,3.84
2024-02-27T15:22:38.368Z,4.36
2024-02-27T15:38:03.310Z,4.36
2024-02-27T15:53:28.265Z,4.36
2024-02-27T16:08:53.263Z,4.36
2024-02-27T16:24:18.393Z,4.36
2024-02-27T16:39:43.394Z,4.36
2024-02-27T16:55:08.262Z,4.36
2024-02-27T17:10:33.345Z,4.36
2024-02-27T17:26:00.430Z,4.36
2024-02-27T17:41:23.285Z,4.36
2024-02-27T17:56:50.560Z,4.36
2024-02-27T18:12:13.236Z,3.84
2024-02-27T18:27:38.271Z,3.84
2024-02-27T18:43:03.313Z,3.84
2024-02-27T18:58:29.247Z,3.84
2024-02-27T19:13:55.279Z,3.84
2024-02-27T19:29:20.156Z,3.84
2024-02-27T19:44:45.181Z,3.84
2024-02-27T20:00:10.196Z,3.84
2024-02-27T20:15:38.417Z,3.84
2024-02-27T20:31:03.136Z,3.84
2024-02-27T20:46:28.198Z,3.84
2024-02-27T21:01:53.191Z,4.69
2024-02-27T21:17:18.187Z,4.69
2024-02-27T21:32:43.140Z,4.15
2024-02-27T21:48:08.223Z,4.15
2024-02-27T22:03:33.187Z,4.15
2024-02-27T22:18:58.200Z,4.15
2024-02-27T22:34:23.088Z,4.15
2024-02-27T22:49:48.133Z,4.15
2024-02-27T23:05:13.122Z,4.15
2024-02-27T23:20:38.076Z,4.15
2024-02-27T23:36:03.058Z,4.15
2024-02-27T23:51:28.168Z,4.15
